sensor_id;sensor_type;location;lat;lon;timestamp;temperature;humidity
32187;DHT22;18686;53.084;8.872;2022-10-31T00:01:00;13.00;99.90
32187;DHT22;18686;53.084;8.872;2022-10-31T00:03:29;13.00;99.90
32187;DHT22;18686;53.084;8.872;2022-10-31T00:05:57;13.00;99.90
32187;DHT22;18686;53.084;8.872;2022-10-31T00:08:28;13.00;99.90
32187;DHT22;18686;53.084;8.872;2022-10-31T00:10:56;13.00;99.90
32187;DHT22;18686;53.084;8.872;2022-10-31T00:13:25;12.90;99.90
32187;DHT22;18686;53.084;8.872;2022-10-31T00:15:53;12.90;99.90
32187;DHT22;18686;53.084;8.872;2022-10-31T00:18:21;12.90;99.90
32187;DHT22;18686;53.084;8.872;2022-10-31T00:20:58;12.90;99.90
32187;DHT22;18686;53.084;8.872;2022-10-31T00:23:26;12.90;99.90
32187;DHT22;18686;53.084;8.872;2022-10-31T00:25:59;12.80;99.90
32187;DHT22;18686;53.084;8.872;2022-10-31T00:28:28;12.90;99.90
32187;DHT22;18686;53.084;8.872;2022-10-31T00:30:58;12.80;99.90
32187;DHT22;18686;53.084;8.872;2022-10-31T00:33:27;12.80;99.90
32187;DHT22;18686;53.084;8.872;2022-10-31T00:35:57;12.80;99.90
32187;DHT22;18686;53.084;8.872;2022-10-31T00:38:25;12.80;99.90
32187;DHT22;18686;53.084;8.872;2022-10-31T00:40:53;12.90;99.90
32187;DHT22;18686;53.084;8.872;2022-10-31T00:43:21;12.90;99.90
32187;DHT22;18686;53.084;8.872;2022-10-31T00:45:49;12.90;99.90
32187;DHT22;18686;53.084;8.872;2022-10-31T00:48:17;12.90;99.90
32187;DHT22;18686;53.084;8.872;2022-10-31T00:50:47;12.90;99.90
32187;DHT22;18686;53.084;8.872;2022-10-31T00:53:16;13.00;99.90
32187;DHT22;18686;53.084;8.872;2022-10-31T00:55:46;13.00;99.90
32187;DHT22;18686;53.084;8.872;2022-10-31T00:58:14;13.00;99.90
32187;DHT22;18686;53.084;8.872;2022-10-31T01:00:43;13.00;99.90
32187;DHT22;18686;53.084;8.872;2022-10-31T01:03:16;13.00;99.90
32187;DHT22;18686;53.084;8.872;2022-10-31T01:05:44;13.00;99.90
32187;DHT22;18686;53.084;8.872;2022-10-31T01:08:13;13.00;99.90
32187;DHT22;18686;53.084;8.872;2022-10-31T01:10:43;13.00;99.90
32187;DHT22;18686;53.084;8.872;2022-10-31T01:13:11;13.00;99.90
32187;DHT22;18686;53.084;8.872;2022-10-31T01:15:40;13.00;99.90
32187;DHT22;18686;53.084;8.872;2022-10-31T01:18:08;13.00;99.90
32187;DHT22;18686;53.084;8.872;2022-10-31T01:20:36;13.00;99.90
32187;DHT22;18686;53.084;8.872;2022-10-31T01:23:04;12.90;99.90
32187;DHT22;18686;53.084;8.872;2022-10-31T01:25:32;12.90;99.90
32187;DHT22;18686;53.084;8.872;2022-10-31T01:28:02;12.90;99.90
32187;DHT22;18686;53.084;8.872;2022-10-31T01:30:30;12.80;99.90
32187;DHT22;18686;53.084;8.872;2022-10-31T01:32:58;12.80;99.90
32187;DHT22;18686;53.084;8.872;2022-10-31T01:35:26;12.80;99.90
32187;DHT22;18686;53.084;8.872;2022-10-31T01:37:56;12.70;99.90
32187;DHT22;18686;53.084;8.872;2022-10-31T01:40:24;12.70;99.90
32187;DHT22;18686;53.084;8.872;2022-10-31T01:42:53;12.70;99.90
32187;DHT22;18686;53.084;8.872;2022-10-31T01:45:23;12.70;99.90
32187;DHT22;18686;53.084;8.872;2022-10-31T01:47:52;12.60;99.90
32187;DHT22;18686;53.084;8.872;2022-10-31T01:50:26;12.60;99.90
32187;DHT22;18686;53.084;8.872;2022-10-31T01:52:56;12.50;99.90
32187;DHT22;18686;53.084;8.872;2022-10-31T01:55:28;12.50;99.90
32187;DHT22;18686;53.084;8.872;2022-10-31T01:57:59;12.50;99.90
32187;DHT22;18686;53.084;8.872;2022-10-31T02:00:31;12.40;99.90
32187;DHT22;18686;53.084;8.872;2022-10-31T02:02:59;12.40;99.90
32187;DHT22;18686;53.084;8.872;2022-10-31T02:05:29;12.40;99.90
32187;DHT22;18686;53.084;8.872;2022-10-31T02:08:01;12.40;99.90
32187;DHT22;18686;53.084;8.872;2022-10-31T02:10:32;12.40;99.90
32187;DHT22;18686;53.084;8.872;2022-10-31T02:13:03;12.40;99.90
32187;DHT22;18686;53.084;8.872;2022-10-31T02:15:37;12.40;99.90
32187;DHT22;18686;53.084;8.872;2022-10-31T02:18:07;12.40;99.90
32187;DHT22;18686;53.084;8.872;2022-10-31T02:20:41;12.40;99.90
32187;DHT22;18686;53.084;8.872;2022-10-31T02:26:43;12.40;99.90
32187;DHT22;18686;53.084;8.872;2022-10-31T02:29:37;12.40;99.90
32187;DHT22;18686;53.084;8.872;2022-10-31T02:32:16;12.40;99.90
32187;DHT22;18686;53.084;8.872;2022-10-31T02:34:51;12.40;99.90
32187;DHT22;18686;53.084;8.872;2022-10-31T02:37:25;12.40;99.90
32187;DHT22;18686;53.084;8.872;2022-10-31T02:40:05;12.30;99.90
32187;DHT22;18686;53.084;8.872;2022-10-31T02:43:02;12.30;99.90
32187;DHT22;18686;53.084;8.872;2022-10-31T02:45:38;12.20;99.90
32187;DHT22;18686;53.084;8.872;2022-10-31T02:48:15;12.20;99.90
32187;DHT22;18686;53.084;8.872;2022-10-31T02:50:51;12.10;99.90
32187;DHT22;18686;53.084;8.872;2022-10-31T02:53:20;12.10;99.90
32187;DHT22;18686;53.084;8.872;2022-10-31T02:55:58;12.00;99.90
32187;DHT22;18686;53.084;8.872;2022-10-31T02:58:29;12.00;99.90
32187;DHT22;18686;53.084;8.872;2022-10-31T03:01:20;11.90;99.90
32187;DHT22;18686;53.084;8.872;2022-10-31T03:04:07;11.90;99.90
32187;DHT22;18686;53.084;8.872;2022-10-31T03:06:45;11.90;99.90
32187;DHT22;18686;53.084;8.872;2022-10-31T03:09:22;11.90;99.90
32187;DHT22;18686;53.084;8.872;2022-10-31T03:11:59;11.80;99.90
32187;DHT22;18686;53.084;8.872;2022-10-31T03:14:33;11.80;99.90
32187;DHT22;18686;53.084;8.872;2022-10-31T03:17:08;11.70;99.90
32187;DHT22;18686;53.084;8.872;2022-10-31T03:19:43;11.70;99.90
32187;DHT22;18686;53.084;8.872;2022-10-31T03:22:16;11.60;99.90
32187;DHT22;18686;53.084;8.872;2022-10-31T03:24:47;11.60;99.90
32187;DHT22;18686;53.084;8.872;2022-10-31T03:27:20;11.60;99.90
32187;DHT22;18686;53.084;8.872;2022-10-31T03:29:51;11.60;99.90
32187;DHT22;18686;53.084;8.872;2022-10-31T03:32:24;11.50;99.90
32187;DHT22;18686;53.084;8.872;2022-10-31T03:34:58;11.50;99.90
32187;DHT22;18686;53.084;8.872;2022-10-31T03:37:29;11.50;99.90
32187;DHT22;18686;53.084;8.872;2022-10-31T03:39:58;11.50;99.90
32187;DHT22;18686;53.084;8.872;2022-10-31T03:42:30;11.50;99.90
32187;DHT22;18686;53.084;8.872;2022-10-31T03:45:03;11.50;99.90
32187;DHT22;18686;53.084;8.872;2022-10-31T03:47:33;11.50;99.90
32187;DHT22;18686;53.084;8.872;2022-10-31T03:50:03;11.50;99.90
32187;DHT22;18686;53.084;8.872;2022-10-31T03:52:37;11.40;99.90
32187;DHT22;18686;53.084;8.872;2022-10-31T03:55:13;11.40;99.90
32187;DHT22;18686;53.084;8.872;2022-10-31T03:57:50;11.40;99.90
32187;DHT22;18686;53.084;8.872;2022-10-31T04:00:20;11.30;99.90
32187;DHT22;18686;53.084;8.872;2022-10-31T04:02:57;11.30;99.90
32187;DHT22;18686;53.084;8.872;2022-10-31T04:05:32;11.30;99.90
32187;DHT22;18686;53.084;8.872;2022-10-31T04:08:04;11.30;99.90
32187;DHT22;18686;53.084;8.872;2022-10-31T04:10:35;11.30;99.90
32187;DHT22;18686;53.084;8.872;2022-10-31T04:13:07;11.30;99.90
32187;DHT22;18686;53.084;8.872;2022-10-31T04:15:43;11.30;99.90
32187;DHT22;18686;53.084;8.872;2022-10-31T04:18:12;11.20;99.90
32187;DHT22;18686;53.084;8.872;2022-10-31T04:20:42;11.20;99.90
32187;DHT22;18686;53.084;8.872;2022-10-31T04:23:18;11.20;99.90
32187;DHT22;18686;53.084;8.872;2022-10-31T04:25:48;11.10;99.90
32187;DHT22;18686;53.084;8.872;2022-10-31T04:28:17;11.10;99.90
32187;DHT22;18686;53.084;8.872;2022-10-31T04:30:50;11.10;99.90
32187;DHT22;18686;53.084;8.872;2022-10-31T04:33:19;11.20;99.90
32187;DHT22;18686;53.084;8.872;2022-10-31T04:35:49;11.20;99.90
32187;DHT22;18686;53.084;8.872;2022-10-31T04:38:17;11.20;99.90
32187;DHT22;18686;53.084;8.872;2022-10-31T04:40:47;11.20;99.90
32187;DHT22;18686;53.084;8.872;2022-10-31T04:43:47;11.20;99.90
32187;DHT22;18686;53.084;8.872;2022-10-31T04:46:15;11.30;99.90
32187;DHT22;18686;53.084;8.872;2022-10-31T04:48:43;11.30;99.90
32187;DHT22;18686;53.084;8.872;2022-10-31T04:51:13;11.30;99.90
32187;DHT22;18686;53.084;8.872;2022-10-31T04:53:41;11.30;99.90
32187;DHT22;18686;53.084;8.872;2022-10-31T04:56:27;11.40;99.90
32187;DHT22;18686;53.084;8.872;2022-10-31T04:59:01;11.40;99.90
32187;DHT22;18686;53.084;8.872;2022-10-31T05:01:40;11.40;99.90
32187;DHT22;18686;53.084;8.872;2022-10-31T05:04:10;11.30;99.90
32187;DHT22;18686;53.084;8.872;2022-10-31T05:06:39;11.30;99.90
32187;DHT22;18686;53.084;8.872;2022-10-31T05:09:08;11.30;99.90
32187;DHT22;18686;53.084;8.872;2022-10-31T05:11:37;11.30;99.90
32187;DHT22;18686;53.084;8.872;2022-10-31T05:14:21;11.30;99.90
32187;DHT22;18686;53.084;8.872;2022-10-31T05:17:15;11.30;99.90
32187;DHT22;18686;53.084;8.872;2022-10-31T05:20:24;11.30;99.90
32187;DHT22;18686;53.084;8.872;2022-10-31T05:23:15;11.40;99.90
32187;DHT22;18686;53.084;8.872;2022-10-31T05:25:43;11.30;99.90
32187;DHT22;18686;53.084;8.872;2022-10-31T05:28:12;11.30;99.90
32187;DHT22;18686;53.084;8.872;2022-10-31T05:30:40;11.30;99.90
32187;DHT22;18686;53.084;8.872;2022-10-31T05:33:12;11.30;99.90
32187;DHT22;18686;53.084;8.872;2022-10-31T05:35:40;11.30;99.90
32187;DHT22;18686;53.084;8.872;2022-10-31T05:38:28;11.30;99.90
32187;DHT22;18686;53.084;8.872;2022-10-31T05:41:00;11.30;99.90
32187;DHT22;18686;53.084;8.872;2022-10-31T05:43:31;11.30;99.90
32187;DHT22;18686;53.084;8.872;2022-10-31T05:46:01;11.30;99.90
32187;DHT22;18686;53.084;8.872;2022-10-31T05:48:55;11.30;99.90
32187;DHT22;18686;53.084;8.872;2022-10-31T05:52:06;11.20;99.90
32187;DHT22;18686;53.084;8.872;2022-10-31T05:54:45;11.20;99.90
32187;DHT22;18686;53.084;8.872;2022-10-31T05:57:14;11.20;99.90
32187;DHT22;18686;53.084;8.872;2022-10-31T05:59:42;11.20;99.90
32187;DHT22;18686;53.084;8.872;2022-10-31T06:02:10;11.20;99.90
32187;DHT22;18686;53.084;8.872;2022-10-31T06:05:11;11.20;99.90
32187;DHT22;18686;53.084;8.872;2022-10-31T06:07:40;11.20;99.90
32187;DHT22;18686;53.084;8.872;2022-10-31T06:10:10;11.20;99.90
32187;DHT22;18686;53.084;8.872;2022-10-31T06:12:38;11.20;99.90
32187;DHT22;18686;53.084;8.872;2022-10-31T06:15:21;11.10;99.90
32187;DHT22;18686;53.084;8.872;2022-10-31T06:18:02;11.10;99.90
32187;DHT22;18686;53.084;8.872;2022-10-31T06:20:34;11.10;99.90
32187;DHT22;18686;53.084;8.872;2022-10-31T06:23:04;11.10;99.90
32187;DHT22;18686;53.084;8.872;2022-10-31T06:25:35;11.10;99.90
32187;DHT22;18686;53.084;8.872;2022-10-31T06:28:04;11.10;99.90
32187;DHT22;18686;53.084;8.872;2022-10-31T06:30:46;11.00;99.90
32187;DHT22;18686;53.084;8.872;2022-10-31T06:33:15;11.00;99.90
32187;DHT22;18686;53.084;8.872;2022-10-31T06:35:53;11.00;99.90
32187;DHT22;18686;53.084;8.872;2022-10-31T06:38:21;11.00;99.90
32187;DHT22;18686;53.084;8.872;2022-10-31T06:40:52;11.00;99.90
32187;DHT22;18686;53.084;8.872;2022-10-31T06:43:22;11.00;99.90
32187;DHT22;18686;53.084;8.872;2022-10-31T06:46:02;11.00;99.90
32187;DHT22;18686;53.084;8.872;2022-10-31T06:48:35;11.10;99.90
32187;DHT22;18686;53.084;8.872;2022-10-31T06:51:38;11.10;99.90
32187;DHT22;18686;53.084;8.872;2022-10-31T06:54:06;11.20;99.90
32187;DHT22;18686;53.084;8.872;2022-10-31T06:56:37;11.20;99.90
32187;DHT22;18686;53.084;8.872;2022-10-31T06:59:05;11.30;99.90
32187;DHT22;18686;53.084;8.872;2022-10-31T07:01:52;11.40;99.90
32187;DHT22;18686;53.084;8.872;2022-10-31T07:04:20;11.50;99.90
32187;DHT22;18686;53.084;8.872;2022-10-31T07:06:50;11.60;99.90
32187;DHT22;18686;53.084;8.872;2022-10-31T07:09:19;11.60;99.90
32187;DHT22;18686;53.084;8.872;2022-10-31T07:11:52;11.70;99.90
32187;DHT22;18686;53.084;8.872;2022-10-31T07:14:20;11.80;99.90
32187;DHT22;18686;53.084;8.872;2022-10-31T07:16:48;11.80;99.90
32187;DHT22;18686;53.084;8.872;2022-10-31T07:19:22;11.80;99.90
32187;DHT22;18686;53.084;8.872;2022-10-31T07:21:50;11.80;99.90
32187;DHT22;18686;53.084;8.872;2022-10-31T07:24:18;11.80;99.90
32187;DHT22;18686;53.084;8.872;2022-10-31T07:27:23;11.80;99.90
32187;DHT22;18686;53.084;8.872;2022-10-31T07:29:52;11.80;99.90
32187;DHT22;18686;53.084;8.872;2022-10-31T07:32:20;11.80;99.90
32187;DHT22;18686;53.084;8.872;2022-10-31T07:34:55;11.80;99.90
32187;DHT22;18686;53.084;8.872;2022-10-31T07:37:32;11.80;99.90
32187;DHT22;18686;53.084;8.872;2022-10-31T07:40:00;11.90;99.90
32187;DHT22;18686;53.084;8.872;2022-10-31T07:42:34;11.90;99.90
32187;DHT22;18686;53.084;8.872;2022-10-31T07:45:03;12.00;99.90
32187;DHT22;18686;53.084;8.872;2022-10-31T07:47:51;12.00;99.90
32187;DHT22;18686;53.084;8.872;2022-10-31T07:50:38;12.00;99.90
32187;DHT22;18686;53.084;8.872;2022-10-31T07:53:41;12.00;99.90
32187;DHT22;18686;53.084;8.872;2022-10-31T07:56:15;12.10;99.90
32187;DHT22;18686;53.084;8.872;2022-10-31T07:58:45;12.10;99.90
32187;DHT22;18686;53.084;8.872;2022-10-31T08:01:13;12.30;99.90
32187;DHT22;18686;53.084;8.872;2022-10-31T08:03:49;12.30;99.90
32187;DHT22;18686;53.084;8.872;2022-10-31T08:06:36;12.40;99.90
32187;DHT22;18686;53.084;8.872;2022-10-31T08:09:18;12.50;99.90
32187;DHT22;18686;53.084;8.872;2022-10-31T08:11:48;12.40;99.90
32187;DHT22;18686;53.084;8.872;2022-10-31T08:14:17;12.40;99.90
32187;DHT22;18686;53.084;8.872;2022-10-31T08:16:45;12.50;99.90
32187;DHT22;18686;53.084;8.872;2022-10-31T08:19:14;12.70;99.90
32187;DHT22;18686;53.084;8.872;2022-10-31T08:21:42;12.90;99.90
32187;DHT22;18686;53.084;8.872;2022-10-31T08:24:10;13.10;99.90
32187;DHT22;18686;53.084;8.872;2022-10-31T08:26:39;13.30;99.90
32187;DHT22;18686;53.084;8.872;2022-10-31T08:29:09;13.50;99.90
32187;DHT22;18686;53.084;8.872;2022-10-31T08:31:40;13.50;99.90
32187;DHT22;18686;53.084;8.872;2022-10-31T08:34:27;13.60;99.90
32187;DHT22;18686;53.084;8.872;2022-10-31T08:37:14;13.70;99.90
32187;DHT22;18686;53.084;8.872;2022-10-31T08:39:51;13.70;99.90
32187;DHT22;18686;53.084;8.872;2022-10-31T08:42:20;13.70;99.90
32187;DHT22;18686;53.084;8.872;2022-10-31T08:44:49;13.80;99.90
32187;DHT22;18686;53.084;8.872;2022-10-31T08:47:21;13.80;99.90
32187;DHT22;18686;53.084;8.872;2022-10-31T08:49:49;13.90;99.90
32187;DHT22;18686;53.084;8.872;2022-10-31T08:52:22;14.00;99.90
32187;DHT22;18686;53.084;8.872;2022-10-31T08:55:11;14.00;99.90
32187;DHT22;18686;53.084;8.872;2022-10-31T08:58:01;14.10;99.90
32187;DHT22;18686;53.084;8.872;2022-10-31T09:00:38;14.30;99.90
32187;DHT22;18686;53.084;8.872;2022-10-31T09:03:16;14.50;99.90
32187;DHT22;18686;53.084;8.872;2022-10-31T09:05:45;14.70;99.90
32187;DHT22;18686;53.084;8.872;2022-10-31T09:08:14;14.90;99.90
32187;DHT22;18686;53.084;8.872;2022-10-31T09:10:45;15.00;99.90
32187;DHT22;18686;53.084;8.872;2022-10-31T09:13:19;15.20;99.90
32187;DHT22;18686;53.084;8.872;2022-10-31T09:16:08;15.30;99.90
32187;DHT22;18686;53.084;8.872;2022-10-31T09:18:37;15.40;99.90
32187;DHT22;18686;53.084;8.872;2022-10-31T09:21:07;15.40;99.90
32187;DHT22;18686;53.084;8.872;2022-10-31T09:23:35;15.30;99.90
32187;DHT22;18686;53.084;8.872;2022-10-31T09:26:03;15.30;99.90
32187;DHT22;18686;53.084;8.872;2022-10-31T09:28:37;15.30;99.90
32187;DHT22;18686;53.084;8.872;2022-10-31T09:31:08;15.40;99.90
32187;DHT22;18686;53.084;8.872;2022-10-31T09:33:56;15.50;99.90
32187;DHT22;18686;53.084;8.872;2022-10-31T09:36:30;15.40;99.90
32187;DHT22;18686;53.084;8.872;2022-10-31T09:38:58;15.40;99.90
32187;DHT22;18686;53.084;8.872;2022-10-31T09:41:30;15.40;99.90
32187;DHT22;18686;53.084;8.872;2022-10-31T09:44:07;15.50;99.90
32187;DHT22;18686;53.084;8.872;2022-10-31T09:46:48;15.50;99.90
32187;DHT22;18686;53.084;8.872;2022-10-31T09:49:34;15.60;99.90
32187;DHT22;18686;53.084;8.872;2022-10-31T09:52:11;15.80;99.90
32187;DHT22;18686;53.084;8.872;2022-10-31T09:54:44;16.00;99.90
32187;DHT22;18686;53.084;8.872;2022-10-31T09:57:19;16.60;99.90
32187;DHT22;18686;53.084;8.872;2022-10-31T09:59:50;17.10;99.90
32187;DHT22;18686;53.084;8.872;2022-10-31T10:02:24;17.80;99.90
32187;DHT22;18686;53.084;8.872;2022-10-31T10:04:57;18.20;99.90
32187;DHT22;18686;53.084;8.872;2022-10-31T10:07:35;18.40;99.90
32187;DHT22;18686;53.084;8.872;2022-10-31T10:10:15;18.90;99.90
32187;DHT22;18686;53.084;8.872;2022-10-31T10:13:44;19.60;99.90
32187;DHT22;18686;53.084;8.872;2022-10-31T10:16:25;20.20;99.90
32187;DHT22;18686;53.084;8.872;2022-10-31T10:19:11;20.90;99.90
32187;DHT22;18686;53.084;8.872;2022-10-31T10:21:45;21.80;99.90
32187;DHT22;18686;53.084;8.872;2022-10-31T10:24:30;22.70;98.90
32187;DHT22;18686;53.084;8.872;2022-10-31T10:27:10;23.30;94.00
32187;DHT22;18686;53.084;8.872;2022-10-31T10:29:49;23.30;92.90
32187;DHT22;18686;53.084;8.872;2022-10-31T10:32:22;23.20;91.80
32187;DHT22;18686;53.084;8.872;2022-10-31T10:34:53;22.80;90.00
32187;DHT22;18686;53.084;8.872;2022-10-31T10:37:30;22.20;86.10
32187;DHT22;18686;53.084;8.872;2022-10-31T10:40:06;21.80;91.10
32187;DHT22;18686;53.084;8.872;2022-10-31T10:42:36;21.60;91.90
32187;DHT22;18686;53.084;8.872;2022-10-31T10:45:21;21.80;92.20
32187;DHT22;18686;53.084;8.872;2022-10-31T10:48:24;21.70;91.60
32187;DHT22;18686;53.084;8.872;2022-10-31T10:50:54;21.30;92.20
32187;DHT22;18686;53.084;8.872;2022-10-31T10:53:39;21.70;92.80
32187;DHT22;18686;53.084;8.872;2022-10-31T10:56:36;23.00;92.30
32187;DHT22;18686;53.084;8.872;2022-10-31T10:59:09;24.70;87.90
32187;DHT22;18686;53.084;8.872;2022-10-31T11:01:39;26.00;78.80
32187;DHT22;18686;53.084;8.872;2022-10-31T11:04:24;27.40;66.30
32187;DHT22;18686;53.084;8.872;2022-10-31T11:07:00;28.30;59.40
32187;DHT22;18686;53.084;8.872;2022-10-31T11:09:30;29.50;59.00
32187;DHT22;18686;53.084;8.872;2022-10-31T11:12:00;30.90;55.70
32187;DHT22;18686;53.084;8.872;2022-10-31T11:14:42;32.40;51.40
32187;DHT22;18686;53.084;8.872;2022-10-31T11:17:16;33.30;48.50
32187;DHT22;18686;53.084;8.872;2022-10-31T11:19:45;32.60;42.70
32187;DHT22;18686;53.084;8.872;2022-10-31T11:22:16;32.40;45.80
32187;DHT22;18686;53.084;8.872;2022-10-31T11:24:46;32.80;45.20
32187;DHT22;18686;53.084;8.872;2022-10-31T11:27:16;32.80;45.00
32187;DHT22;18686;53.084;8.872;2022-10-31T11:29:47;33.20;43.20
32187;DHT22;18686;53.084;8.872;2022-10-31T11:32:20;33.70;41.50
32187;DHT22;18686;53.084;8.872;2022-10-31T11:34:51;33.70;41.30
32187;DHT22;18686;53.084;8.872;2022-10-31T11:37:22;33.40;41.50
32187;DHT22;18686;53.084;8.872;2022-10-31T11:39:54;32.90;41.30
32187;DHT22;18686;53.084;8.872;2022-10-31T11:42:24;32.90;41.00
32187;DHT22;18686;53.084;8.872;2022-10-31T11:44:54;32.80;40.70
32187;DHT22;18686;53.084;8.872;2022-10-31T11:47:26;32.50;40.50
32187;DHT22;18686;53.084;8.872;2022-10-31T11:49:56;31.40;41.70
32187;DHT22;18686;53.084;8.872;2022-10-31T11:52:26;30.60;43.00
32187;DHT22;18686;53.084;8.872;2022-10-31T11:55:00;29.80;43.80
32187;DHT22;18686;53.084;8.872;2022-10-31T11:57:31;28.80;45.20
32187;DHT22;18686;53.084;8.872;2022-10-31T12:00:02;27.60;48.20
32187;DHT22;18686;53.084;8.872;2022-10-31T12:02:40;26.80;49.30
32187;DHT22;18686;53.084;8.872;2022-10-31T12:05:17;25.60;51.70
32187;DHT22;18686;53.084;8.872;2022-10-31T12:07:47;24.20;55.40
32187;DHT22;18686;53.084;8.872;2022-10-31T12:10:20;23.30;58.00
32187;DHT22;18686;53.084;8.872;2022-10-31T12:13:00;22.50;60.20
32187;DHT22;18686;53.084;8.872;2022-10-31T12:15:35;21.70;63.90
32187;DHT22;18686;53.084;8.872;2022-10-31T12:18:26;21.30;65.90
32187;DHT22;18686;53.084;8.872;2022-10-31T12:21:11;21.70;68.30
32187;DHT22;18686;53.084;8.872;2022-10-31T12:23:50;22.20;66.70
32187;DHT22;18686;53.084;8.872;2022-10-31T12:26:27;22.30;66.50
32187;DHT22;18686;53.084;8.872;2022-10-31T12:29:07;22.30;66.80
32187;DHT22;18686;53.084;8.872;2022-10-31T12:31:50;21.80;67.60
32187;DHT22;18686;53.084;8.872;2022-10-31T12:34:38;21.10;70.50
32187;DHT22;18686;53.084;8.872;2022-10-31T12:37:24;20.40;73.90
32187;DHT22;18686;53.084;8.872;2022-10-31T12:40:06;20.00;79.00
32187;DHT22;18686;53.084;8.872;2022-10-31T12:42:47;19.50;82.80
32187;DHT22;18686;53.084;8.872;2022-10-31T12:45:37;19.20;86.60
32187;DHT22;18686;53.084;8.872;2022-10-31T12:48:28;19.10;90.50
32187;DHT22;18686;53.084;8.872;2022-10-31T12:51:03;18.70;92.80
32187;DHT22;18686;53.084;8.872;2022-10-31T12:53:44;18.20;96.10
32187;DHT22;18686;53.084;8.872;2022-10-31T12:56:26;18.10;97.70
32187;DHT22;18686;53.084;8.872;2022-10-31T12:59:02;18.00;99.10
32187;DHT22;18686;53.084;8.872;2022-10-31T13:01:34;18.00;99.50
32187;DHT22;18686;53.084;8.872;2022-10-31T13:04:12;17.80;99.90
32187;DHT22;18686;53.084;8.872;2022-10-31T13:06:46;17.70;99.90
32187;DHT22;18686;53.084;8.872;2022-10-31T13:09:18;17.50;99.90
32187;DHT22;18686;53.084;8.872;2022-10-31T13:11:52;17.30;99.90
32187;DHT22;18686;53.084;8.872;2022-10-31T13:14:27;17.30;99.90
32187;DHT22;18686;53.084;8.872;2022-10-31T13:16:57;17.20;99.90
32187;DHT22;18686;53.084;8.872;2022-10-31T13:19:31;17.10;99.90
32187;DHT22;18686;53.084;8.872;2022-10-31T13:22:05;16.80;99.90
32187;DHT22;18686;53.084;8.872;2022-10-31T13:24:36;16.70;99.90
32187;DHT22;18686;53.084;8.872;2022-10-31T13:27:12;16.80;99.90
32187;DHT22;18686;53.084;8.872;2022-10-31T13:29:49;16.60;99.90
32187;DHT22;18686;53.084;8.872;2022-10-31T13:32:22;16.60;99.90
32187;DHT22;18686;53.084;8.872;2022-10-31T13:34:53;16.50;99.90
32187;DHT22;18686;53.084;8.872;2022-10-31T13:37:29;16.40;99.90
32187;DHT22;18686;53.084;8.872;2022-10-31T13:40:09;16.40;99.90
32187;DHT22;18686;53.084;8.872;2022-10-31T13:42:48;16.40;99.90
32187;DHT22;18686;53.084;8.872;2022-10-31T13:45:23;16.40;99.90
32187;DHT22;18686;53.084;8.872;2022-10-31T13:47:57;16.40;99.90
32187;DHT22;18686;53.084;8.872;2022-10-31T13:50:27;16.50;99.90
32187;DHT22;18686;53.084;8.872;2022-10-31T13:53:13;16.50;99.90
32187;DHT22;18686;53.084;8.872;2022-10-31T13:55:43;16.60;99.90
32187;DHT22;18686;53.084;8.872;2022-10-31T13:58:22;16.60;99.90
32187;DHT22;18686;53.084;8.872;2022-10-31T14:01:11;16.70;99.90
32187;DHT22;18686;53.084;8.872;2022-10-31T14:03:43;16.90;99.90
32187;DHT22;18686;53.084;8.872;2022-10-31T14:06:42;17.00;99.90
32187;DHT22;18686;53.084;8.872;2022-10-31T14:09:19;17.10;99.90
32187;DHT22;18686;53.084;8.872;2022-10-31T14:11:49;17.10;99.90
32187;DHT22;18686;53.084;8.872;2022-10-31T14:14:19;17.20;99.90
32187;DHT22;18686;53.084;8.872;2022-10-31T14:16:56;17.20;99.90
32187;DHT22;18686;53.084;8.872;2022-10-31T14:19:25;17.20;99.90
32187;DHT22;18686;53.084;8.872;2022-10-31T14:21:53;17.20;99.90
32187;DHT22;18686;53.084;8.872;2022-10-31T14:24:34;17.10;99.90
32187;DHT22;18686;53.084;8.872;2022-10-31T14:27:32;17.00;99.90
32187;DHT22;18686;53.084;8.872;2022-10-31T14:29:54;16.90;99.90
32187;DHT22;18686;53.084;8.872;2022-10-31T14:32:24;16.80;99.90
32187;DHT22;18686;53.084;8.872;2022-10-31T14:34:55;16.80;99.90
32187;DHT22;18686;53.084;8.872;2022-10-31T14:37:42;16.70;99.90
32187;DHT22;18686;53.084;8.872;2022-10-31T14:40:27;16.60;99.90
32187;DHT22;18686;53.084;8.872;2022-10-31T14:46:02;16.40;99.90
32187;DHT22;18686;53.084;8.872;2022-10-31T14:49:04;16.30;99.90
32187;DHT22;18686;53.084;8.872;2022-10-31T14:51:36;16.00;99.90
32187;DHT22;18686;53.084;8.872;2022-10-31T14:54:06;15.90;99.90
32187;DHT22;18686;53.084;8.872;2022-10-31T14:56:39;15.80;99.90
32187;DHT22;18686;53.084;8.872;2022-10-31T14:59:15;15.70;99.90
32187;DHT22;18686;53.084;8.872;2022-10-31T15:01:53;15.60;99.90
32187;DHT22;18686;53.084;8.872;2022-10-31T15:04:24;15.60;99.90
32187;DHT22;18686;53.084;8.872;2022-10-31T15:06:57;15.50;99.90
32187;DHT22;18686;53.084;8.872;2022-10-31T15:09:28;15.50;99.90
32187;DHT22;18686;53.084;8.872;2022-10-31T15:11:58;15.40;99.90
32187;DHT22;18686;53.084;8.872;2022-10-31T15:14:28;15.40;99.90
32187;DHT22;18686;53.084;8.872;2022-10-31T15:16:59;15.30;99.90
32187;DHT22;18686;53.084;8.872;2022-10-31T15:19:32;15.30;99.90
32187;DHT22;18686;53.084;8.872;2022-10-31T15:22:00;15.30;99.90
32187;DHT22;18686;53.084;8.872;2022-10-31T15:24:33;15.20;99.90
32187;DHT22;18686;53.084;8.872;2022-10-31T15:27:02;15.20;99.90
32187;DHT22;18686;53.084;8.872;2022-10-31T15:29:31;15.20;99.90
32187;DHT22;18686;53.084;8.872;2022-10-31T15:32:15;15.20;99.90
32187;DHT22;18686;53.084;8.872;2022-10-31T15:34:44;15.10;99.90
32187;DHT22;18686;53.084;8.872;2022-10-31T15:37:13;15.10;99.90
32187;DHT22;18686;53.084;8.872;2022-10-31T15:39:43;15.00;99.90
32187;DHT22;18686;53.084;8.872;2022-10-31T15:42:18;14.90;99.90
32187;DHT22;18686;53.084;8.872;2022-10-31T15:44:49;14.90;99.90
32187;DHT22;18686;53.084;8.872;2022-10-31T15:47:22;14.80;99.90
32187;DHT22;18686;53.084;8.872;2022-10-31T15:49:53;14.80;99.90
32187;DHT22;18686;53.084;8.872;2022-10-31T15:52:28;14.80;99.90
32187;DHT22;18686;53.084;8.872;2022-10-31T15:55:00;14.70;99.90
32187;DHT22;18686;53.084;8.872;2022-10-31T15:57:30;14.60;99.90
32187;DHT22;18686;53.084;8.872;2022-10-31T15:59:58;14.60;99.90
32187;DHT22;18686;53.084;8.872;2022-10-31T16:02:27;14.50;99.90
32187;DHT22;18686;53.084;8.872;2022-10-31T16:04:58;14.50;99.90
32187;DHT22;18686;53.084;8.872;2022-10-31T16:07:28;14.40;99.90
32187;DHT22;18686;53.084;8.872;2022-10-31T16:09:58;14.30;99.90
32187;DHT22;18686;53.084;8.872;2022-10-31T16:12:35;14.30;99.90
32187;DHT22;18686;53.084;8.872;2022-10-31T16:15:05;14.20;99.90
32187;DHT22;18686;53.084;8.872;2022-10-31T16:17:40;14.20;99.90
32187;DHT22;18686;53.084;8.872;2022-10-31T16:20:19;14.20;99.90
32187;DHT22;18686;53.084;8.872;2022-10-31T16:22:49;14.10;99.90